Terminal Aerodrome Forecast
Issued by NWS

Home | Current Version | Previous Version | Text Only | Print | Product List | Glossary On
Versions: 1 2 3 4 5 6 7 8 9 10 11 12 13 14 15 16 17
000
FTAK31 PANC 260531
TAFATK
TAF
PATK 260531Z 2606/2706 VRB03KT P6SM VCSH SCT040 OVC060
      TEMPO 2606/2608 5SM -SHRA BKN025
     FM260900 VRB03KT P6SM SCT050 BKN080=

USA.gov is the U.S. government's official web portal to all federal, state and local government web resources and services.